Time;durP1;ratioP1;P1;durP2;ratioP2;P2;SDS_P1;SDS_P2;PMS_P1;PMS_P2;Temp;Humidity;BMP_temperature;BMP_pressure;BME280_temperature;BME280_humidity;BME280_pressure;Samples;Min_cycle;Max_cycle;Signal;HPM_P1;HPM_P2
2023/04/22 00:00:49;;;;;;;;;;;;;;;;;;5072927;28;20819;-54
2023/04/22 00:03:15;;;;;;;;;;;;;;;;;;5077320;28;20496;-54
2023/04/22 00:05:41;;;;;;;;;;;;;;;;;;5073925;28;20150;-53
2023/04/22 00:08:07;;;;;;;;;;;;;;;;;;5076773;28;20515;-53
2023/04/22 00:10:33;;;;;;;;;;;;;;;;;;5073118;28;20192;-54
2023/04/22 00:12:58;;;;;;;;;;;;;;;;;;5080456;28;20584;-53
2023/04/22 00:15:25;;;;;;;;;;;;;;;;;;5077891;28;20143;-54
2023/04/22 00:17:51;;;;;;;;;;;;;;;;;;5068653;28;20220;-53
2023/04/22 00:20:17;;;;;;;;;;;;;;;;;;5072326;28;20150;-54
2023/04/22 00:22:43;;;;;;;;;;;;;;;;;;5075387;28;20235;-53
2023/04/22 00:25:09;;;;;;;;;;;;;;;;;;5081207;28;20154;-53
2023/04/22 00:27:35;;;;;;;;;;;;;;;;;;5076888;28;20172;-54
2023/04/22 00:30:01;;;;;;;;;;;;;;;;;;5081628;28;20208;-53
2023/04/22 00:32:27;;;;;;;;;;;;;;;;;;5072560;28;20213;-54
2023/04/22 00:34:53;;;;;;;;;;;;;;;;;;5070784;28;20435;-54
2023/04/22 00:37:18;;;;;;;;;;;;;;;;;;5071397;28;21764;-55
2023/04/22 00:39:45;;;;;;;;;;;;;;;;;;5070271;28;20164;-53
2023/04/22 00:42:10;;;;;;;;;;;;;;;;;;5065149;28;20281;-54
2023/04/22 00:44:36;;;;;;;;;;;;;;;;;;5067839;28;20464;-55
2023/04/22 00:47:02;;;;;;;;;;;;;;;;;;5066612;28;20163;-54
2023/04/22 00:49:28;;;;;;;;;;;;;;;;;;5070394;28;20277;-54
2023/04/22 00:51:54;;;;;;;;;;;;;;;;;;5071267;28;20164;-53
2023/04/22 00:54:20;;;;;;;;;;;;;;;;;;5064820;28;20151;-54
2023/04/22 00:56:46;;;;;;;;;;;;;;;;;;5070821;28;20508;-54
2023/04/22 00:59:12;;;;;;;;;;;;;;;;;;5067520;28;20205;-54
2023/04/22 01:01:37;;;;;;;;;;;;;;;;;;5068189;28;20760;-54
2023/04/22 01:04:03;;;;;;;;;;;;;;;;;;5063770;28;20635;-54
2023/04/22 01:06:31;;;;;;;;;;;;;;;;;;5068026;28;20393;-54
2023/04/22 01:08:57;;;;;;;;;;;;;;;;;;5071970;28;20169;-54
2023/04/22 01:11:23;;;;;;;;;;;;;;;;;;5066442;28;20163;-55
2023/04/22 01:13:48;;;;;;;;;;;;;;;;;;5065522;28;20252;-54
2023/04/22 01:16:14;;;;;;;;;;;;;;;;;;5069554;28;20619;-54
2023/04/22 01:18:40;;;;;;;;;;;;;;;;;;5072518;28;20189;-54
2023/04/22 01:21:06;;;;;;;;;;;;;;;;;;5070678;28;20269;-54
2023/04/22 01:23:32;;;;;;;;;;;;;;;;;;5065184;28;20188;-53
2023/04/22 01:25:58;;;;;;;;;;;;;;;;;;5060236;28;20172;-54
2023/04/22 01:28:24;;;;;;;;;;;;;;;;;;5070110;28;20588;-54
2023/04/22 01:30:51;;;;;;;;;;;;;;;;;;5067168;28;20526;-54
2023/04/22 01:33:17;;;;;;;;;;;;;;;;;;5070528;28;20209;-54
2023/04/22 01:35:42;;;;;;;;;;;;;;;;;;5057143;28;20621;-54
2023/04/22 01:38:08;;;;;;;;;;;;;;;;;;5073591;28;20175;-53
2023/04/22 01:40:34;;;;;;;;;;;;;;;;;;5081360;28;20639;-54
2023/04/22 01:43:00;;;;;;;;;;;;;;;;;;5076112;28;20163;-54
2023/04/22 01:45:26;;;;;;;;;;;;;;;;;;5070916;28;20224;-53
2023/04/22 01:47:52;;;;;;;;;;;;;;;;;;5081202;28;20158;-53
2023/04/22 01:50:18;;;;;;;;;;;;;;;;;;5083287;28;20183;-54
2023/04/22 01:52:44;;;;;;;;;;;;;;;;;;5080075;28;20228;-54
2023/04/22 01:55:09;;;;;;;;;;;;;;;;;;5086081;28;20191;-54
2023/04/22 01:57:35;;;;;;;;;;;;;;;;;;5082831;28;20572;-54
2023/04/22 02:00:01;;;;;;;;;;;;;;;;;;5083140;28;20259;-53
2023/04/22 02:02:27;;;;;;;;;;;;;;;;;;5072331;28;20707;-53
2023/04/22 02:04:53;;;;;;;;;;;;;;;;;;5078887;28;20194;-53
2023/04/22 02:07:19;;;;;;;;;;;;;;;;;;5078411;28;20254;-54
2023/04/22 02:09:45;;;;;;;;;;;;;;;;;;5084275;28;20205;-54
2023/04/22 02:12:10;;;;;;;;;;;;;;;;;;5075745;28;20216;-54
2023/04/22 02:14:36;;;;;;;;;;;;;;;;;;5084404;28;20220;-55
2023/04/22 02:17:02;;;;;;;;;;;;;;;;;;5072406;28;20555;-54
2023/04/22 02:19:28;;;;;;;;;;;;;;;;;;5073541;28;20194;-58
2023/04/22 02:21:54;;;;;;;;;;;;;;;;;;5072471;28;20832;-57
2023/04/22 02:24:20;;;;;;;;;;;;;;;;;;5072200;28;20177;-54
2023/04/22 02:26:46;;;;;;;;;;;;;;;;;;5074857;28;20274;-55
2023/04/22 02:29:12;;;;;;;;;;;;;;;;;;5073616;28;20270;-53
2023/04/22 02:31:38;;;;;;;;;;;;;;;;;;5070383;28;20226;-53
2023/04/22 02:34:03;;;;;;;;;;;;;;;;;;5074809;28;20196;-54
2023/04/22 02:36:30;;;;;;;;;;;;;;;;;;5072727;28;20176;-56
2023/04/22 02:38:56;;;;;;;;;;;;;;;;;;5073527;28;20218;-61
2023/04/22 02:41:22;;;;;;;;;;;;;;;;;;5071688;28;20247;-55
2023/04/22 02:43:48;;;;;;;;;;;;;;;;;;5066141;28;20557;-56
2023/04/22 02:46:15;;;;;;;;;;;;;;;;;;5072073;28;20354;-54
2023/04/22 02:48:41;;;;;;;;;;;;;;;;;;5069706;28;20174;-54
2023/04/22 02:51:07;;;;;;;;;;;;;;;;;;5070026;28;20581;-56
2023/04/22 02:53:33;;;;;;;;;;;;;;;;;;5068624;28;20251;-53
2023/04/22 02:55:59;;;;;;;;;;;;;;;;;;5070672;28;20169;-54
2023/04/22 02:58:25;;;;;;;;;;;;;;;;;;5073059;28;20156;-54
2023/04/22 03:00:51;;;;;;;;;;;;;;;;;;5069448;28;20176;-53
2023/04/22 03:03:17;;;;;;;;;;;;;;;;;;5070811;28;20289;-53
2023/04/22 03:05:43;;;;;;;;;;;;;;;;;;5070485;28;20188;-53
2023/04/22 03:08:09;;;;;;;;;;;;;;;;;;5074844;28;20862;-53
2023/04/22 03:10:35;;;;;;;;;;;;;;;;;;5072245;28;20184;-54
2023/04/22 03:13:01;;;;;;;;;;;;;;;;;;5070500;28;20199;-54
2023/04/22 03:15:27;;;;;;;;;;;;;;;;;;5072322;28;20164;-54
2023/04/22 03:17:53;;;;;;;;;;;;;;;;;;5072751;28;20225;-58
2023/04/22 03:20:19;;;;;;;;;;;;;;;;;;5073812;28;20201;-54
2023/04/22 03:22:44;;;;;;;;;;;;;;;;;;5070704;28;20271;-56
2023/04/22 03:25:10;;;;;;;;;;;;;;;;;;5070903;28;20156;-59
2023/04/22 03:27:36;;;;;;;;;;;;;;;;;;5071752;28;20249;-54
2023/04/22 03:30:02;;;;;;;;;;;;;;;;;;5069622;28;20185;-54
2023/04/22 03:32:28;;;;;;;;;;;;;;;;;;5068852;28;20258;-57
2023/04/22 03:34:54;;;;;;;;;;;;;;;;;;5072197;28;20172;-56
2023/04/22 03:37:20;;;;;;;;;;;;;;;;;;5068496;28;20583;-56
2023/04/22 03:39:46;;;;;;;;;;;;;;;;;;5078406;28;20150;-55
2023/04/22 03:42:12;;;;;;;;;;;;;;;;;;5079437;28;20177;-54
2023/04/22 03:44:38;;;;;;;;;;;;;;;;;;5077723;28;20168;-54
2023/04/22 03:47:03;;;;;;;;;;;;;;;;;;5077111;28;20243;-54
2023/04/22 03:49:29;;;;;;;;;;;;;;;;;;5075483;28;20265;-54
2023/04/22 03:51:55;;;;;;;;;;;;;;;;;;5069257;28;20819;-54
2023/04/22 03:54:21;;;;;;;;;;;;;;;;;;5066839;28;20183;-54
2023/04/22 03:56:47;;;;;;;;;;;;;;;;;;5076508;28;20191;-54
2023/04/22 03:59:13;;;;;;;;;;;;;;;;;;5072569;28;20208;-54
2023/04/22 04:01:39;;;;;;;;;;;;;;;;;;5071003;28;20879;-54
2023/04/22 04:04:05;;;;;;;;;;;;;;;;;;5069018;28;20160;-54
2023/04/22 04:06:31;;;;;;;;;;;;;;;;;;5079963;28;20185;-54
2023/04/22 04:08:57;;;;;;;;;;;;;;;;;;5070679;28;20155;-54
2023/04/22 04:11:23;;;;;;;;;;;;;;;;;;5077936;28;20523;-54
2023/04/22 04:13:49;;;;;;;;;;;;;;;;;;5075104;28;20736;-54
2023/04/22 04:16:15;;;;;;;;;;;;;;;;;;5057969;28;20200;-54
2023/04/22 04:18:41;;;;;;;;;;;;;;;;;;5073584;28;20735;-54
2023/04/22 04:21:07;;;;;;;;;;;;;;;;;;5076923;28;20171;-54
2023/04/22 04:23:33;;;;;;;;;;;;;;;;;;5051520;28;20211;-54
2023/04/22 04:26:01;;;;;;;;;;;;;;;;;;5063261;28;20195;-55
2023/04/22 04:28:31;;;;;;;;;;;;;;;;;;5068279;28;20212;-54
2023/04/22 04:30:57;;;;;;;;;;;;;;;;;;5079932;28;20147;-54
2023/04/22 04:33:23;;;;;;;;;;;;;;;;;;5070724;28;20196;-54
2023/04/22 04:35:50;;;;;;;;;;;;;;;;;;5080614;28;20180;-54
2023/04/22 04:38:16;;;;;;;;;;;;;;;;;;5074912;28;20194;-54
2023/04/22 04:40:42;;;;;;;;;;;;;;;;;;5070893;28;20215;-55
2023/04/22 04:43:08;;;;;;;;;;;;;;;;;;5074053;28;20189;-54
2023/04/22 04:45:35;;;;;;;;;;;;;;;;;;5078294;28;20165;-54
2023/04/22 04:48:01;;;;;;;;;;;;;;;;;;5077704;28;20183;-54
2023/04/22 04:50:27;;;;;;;;;;;;;;;;;;5068277;28;20165;-55
2023/04/22 04:52:53;;;;;;;;;;;;;;;;;;5071589;28;20215;-54
2023/04/22 04:55:19;;;;;;;;;;;;;;;;;;5073109;28;20750;-54
2023/04/22 04:57:45;;;;;;;;;;;;;;;;;;5066797;28;20309;-54
2023/04/22 05:00:10;;;;;;;;;;;;;;;;;;5073360;28;20262;-54
2023/04/22 05:02:36;;;;;;;;;;;;;;;;;;5067934;28;20175;-54
2023/04/22 05:05:02;;;;;;;;;;;;;;;;;;5067249;28;20178;-54
2023/04/22 05:07:28;;;;;;;;;;;;;;;;;;5068421;28;20188;-54
2023/04/22 05:09:54;;;;;;;;;;;;;;;;;;5072523;28;20253;-54
2023/04/22 05:12:20;;;;;;;;;;;;;;;;;;5068194;28;20213;-54
2023/04/22 05:14:46;;;;;;;;;;;;;;;;;;5070068;28;20166;-54
2023/04/22 05:17:13;;;;;;;;;;;;;;;;;;5073067;28;20232;-54
2023/04/22 05:19:39;;;;;;;;;;;;;;;;;;5073600;28;20233;-54
2023/04/22 05:22:05;;;;;;;;;;;;;;;;;;5068280;28;20189;-55
2023/04/22 05:24:30;;;;;;;;;;;;;;;;;;5072553;28;20175;-54
2023/04/22 05:26:57;;;;;;;;;;;;;;;;;;5068782;28;20291;-54
2023/04/22 05:29:23;;;;;;;;;;;;;;;;;;5067770;28;20454;-54
2023/04/22 05:31:49;;;;;;;;;;;;;;;;;;5064245;28;20288;-54
2023/04/22 05:34:14;;;;;;;;;;;;;;;;;;5072637;28;20170;-54
2023/04/22 05:36:40;;;;;;;;;;;;;;;;;;5060743;28;20170;-55
2023/04/22 05:39:06;;;;;;;;;;;;;;;;;;5070307;28;20211;-54
2023/04/22 05:41:32;;;;;;;;;;;;;;;;;;5073102;28;20185;-54
2023/04/22 05:43:58;;;;;;;;;;;;;;;;;;5070779;28;20229;-57
2023/04/22 05:46:24;;;;;;;;;;;;;;;;;;5070271;28;20657;-54
2023/04/22 05:48:50;;;;;;;;;;;;;;;;;;5078428;28;20186;-54
2023/04/22 05:51:16;;;;;;;;;;;;;;;;;;5077486;28;20181;-54
2023/04/22 05:53:42;;;;;;;;;;;;;;;;;;5070437;28;20632;-54
2023/04/22 05:56:08;;;;;;;;;;;;;;;;;;5074993;28;20188;-54
2023/04/22 05:58:33;;;;;;;;;;;;;;;;;;5071704;28;20646;-53
2023/04/22 06:00:59;;;;;;;;;;;;;;;;;;5072756;28;20377;-54
2023/04/22 06:03:25;;;;;;;;;;;;;;;;;;5071127;28;20173;-54
2023/04/22 06:05:51;;;;;;;;;;;;;;;;;;5077670;28;20170;-54
2023/04/22 06:08:18;;;;;;;;;;;;;;;;;;5076900;28;20346;-54
2023/04/22 06:10:44;;;;;;;;;;;;;;;;;;5078212;28;20182;-54
2023/04/22 06:13:10;;;;;;;;;;;;;;;;;;5067589;28;20194;-54
2023/04/22 06:15:36;;;;;;;;;;;;;;;;;;5067551;28;20897;-54
2023/04/22 06:18:02;;;;;;;;;;;;;;;;;;5073109;28;20170;-53
2023/04/22 06:20:28;;;;;;;;;;;;;;;;;;5076562;28;20380;-54
2023/04/22 06:22:54;;;;;;;;;;;;;;;;;;5077092;28;20180;-53
2023/04/22 06:25:20;;;;;;;;;;;;;;;;;;5075553;28;20174;-54
2023/04/22 06:27:46;;;;;;;;;;;;;;;;;;5067797;28;20274;-54
2023/04/22 06:30:11;;;;;;;;;;;;;;;;;;5074299;28;20193;-54
2023/04/22 06:32:37;;;;;;;;;;;;;;;;;;5076066;28;20216;-54
2023/04/22 06:35:03;;;;;;;;;;;;;;;;;;5067028;28;20175;-54
2023/04/22 06:37:29;;;;;;;;;;;;;;;;;;5078442;28;20170;-54
2023/04/22 06:39:55;;;;;;;;;;;;;;;;;;5064527;28;20173;-53
2023/04/22 06:42:21;;;;;;;;;;;;;;;;;;5076251;28;20187;-54
2023/04/22 06:44:47;;;;;;;;;;;;;;;;;;5075304;28;20173;-54
2023/04/22 06:47:13;;;;;;;;;;;;;;;;;;5069717;28;20531;-53
2023/04/22 06:49:39;;;;;;;;;;;;;;;;;;5081743;28;20165;-53
2023/04/22 06:52:05;;;;;;;;;;;;;;;;;;5056171;28;20613;-54
2023/04/22 06:54:31;;;;;;;;;;;;;;;;;;5075230;28;20174;-54
2023/04/22 06:56:57;;;;;;;;;;;;;;;;;;5075576;28;20161;-54
2023/04/22 06:59:23;;;;;;;;;;;;;;;;;;5073804;28;20616;-54
2023/04/22 07:01:49;;;;;;;;;;;;;;;;;;5070231;28;20196;-53
2023/04/22 07:04:14;;;;;;;;;;;;;;;;;;5068909;28;20165;-53
2023/04/22 07:06:40;;;;;;;;;;;;;;;;;;5076014;28;20648;-53
2023/04/22 07:09:06;;;;;;;;;;;;;;;;;;5075207;28;20169;-54
2023/04/22 07:11:33;;;;;;;;;;;;;;;;;;5078424;28;20667;-54
2023/04/22 07:13:58;;;;;;;;;;;;;;;;;;5078110;28;20618;-53
2023/04/22 07:16:24;;;;;;;;;;;;;;;;;;5079299;28;20274;-54
2023/04/22 07:18:50;;;;;;;;;;;;;;;;;;5068386;28;20529;-53
2023/04/22 07:21:16;;;;;;;;;;;;;;;;;;5073976;28;20140;-53
2023/04/22 07:23:42;;;;;;;;;;;;;;;;;;5081061;28;20652;-53
2023/04/22 07:26:08;;;;;;;;;;;;;;;;;;5071185;28;20182;-53
2023/04/22 07:28:34;;;;;;;;;;;;;;;;;;5072974;28;20270;-54
2023/04/22 07:31:00;;;;;;;;;;;;;;;;;;5070383;28;20162;-53
2023/04/22 07:33:25;;;;;;;;;;;;;;;;;;5072880;28;20205;-54
2023/04/22 07:35:51;;;;;;;;;;;;;;;;;;5069081;28;20297;-54
2023/04/22 07:38:17;;;;;;;;;;;;;;;;;;5067476;28;20864;-54
2023/04/22 07:40:43;;;;;;;;;;;;;;;;;;5067529;28;20830;-53
2023/04/22 07:43:09;;;;;;;;;;;;;;;;;;5051644;28;20179;-52
2023/04/22 07:45:35;;;;;;;;;;;;;;;;;;5069325;28;20243;-53
2023/04/22 07:48:01;;;;;;;;;;;;;;;;;;5068854;28;20222;-53
2023/04/22 07:50:27;;;;;;;;;;;;;;;;;;5073137;28;20404;-53
2023/04/22 07:52:52;;;;;;;;;;;;;;;;;;5075099;28;20179;-53
2023/04/22 07:55:18;;;;;;;;;;;;;;;;;;5070345;28;20680;-54
2023/04/22 07:57:44;;;;;;;;;;;;;;;;;;5071862;28;20179;-53
2023/04/22 08:00:10;;;;;;;;;;;;;;;;;;5073462;28;20354;-54
2023/04/22 08:02:36;;;;;;;;;;;;;;;;;;5067376;28;21057;-53
2023/04/22 08:05:02;;;;;;;;;;;;;;;;;;5059387;28;20202;-54
2023/04/22 08:07:28;;;;;;;;;;;;;;;;;;5073015;28;20165;-54
2023/04/22 08:09:55;;;;;;;;;;;;;;;;;;5076459;28;20167;-53
2023/04/22 08:12:21;;;;;;;;;;;;;;;;;;5076119;28;20241;-53
2023/04/22 08:14:47;;;;;;;;;;;;;;;;;;5067849;28;20702;-55
2023/04/22 08:17:13;;;;;;;;;;;;;;;;;;5079331;28;20151;-54
2023/04/22 08:19:38;;;;;;;;;;;;;;;;;;5078913;28;20269;-54
2023/04/22 08:22:05;;;;;;;;;;;;;;;;;;5076236;28;20179;-54
2023/04/22 08:24:31;;;;;;;;;;;;;;;;;;5076824;28;20194;-54
2023/04/22 08:26:57;;;;;;;;;;;;;;;;;;5074429;28;20200;-54
2023/04/22 08:29:23;;;;;;;;;;;;;;;;;;5077433;28;20180;-54
2023/04/22 08:31:49;;;;;;;;;;;;;;;;;;5077750;28;20168;-54
2023/04/22 08:34:15;;;;;;;;;;;;;;;;;;5076756;28;20156;-54
2023/04/22 08:36:41;;;;;;;;;;;;;;;;;;5078918;28;20203;-54
2023/04/22 08:39:07;;;;;;;;;;;;;;;;;;5080895;28;20184;-54
2023/04/22 08:41:34;;;;;;;;;;;;;;;;;;5078765;28;20145;-54
2023/04/22 08:44:00;;;;;;;;;;;;;;;;;;5076633;28;20163;-53
2023/04/22 08:46:27;;;;;;;;;;;;;;;;;;5077769;28;20576;-54
2023/04/22 08:48:53;;;;;;;;;;;;;;;;;;5079246;28;20409;-54
2023/04/22 08:51:19;;;;;;;;;;;;;;;;;;5080614;28;20175;-54
2023/04/22 08:53:45;;;;;;;;;;;;;;;;;;5082452;28;20557;-54
2023/04/22 08:56:11;;;;;;;;;;;;;;;;;;5076692;28;20171;-53
2023/04/22 08:58:36;;;;;;;;;;;;;;;;;;5044144;28;20518;-53
2023/04/22 09:01:02;;;;;;;;;;;;;;;;;;5077593;28;20151;-54
2023/04/22 09:03:28;;;;;;;;;;;;;;;;;;5074759;28;20270;-54
2023/04/22 09:05:54;;;;;;;;;;;;;;;;;;5080145;28;20161;-54
2023/04/22 09:08:20;;;;;;;;;;;;;;;;;;5077553;28;20175;-54
2023/04/22 09:10:46;;;;;;;;;;;;;;;;;;5076323;28;20219;-53
2023/04/22 09:13:12;;;;;;;;;;;;;;;;;;5078266;28;20225;-53
2023/04/22 09:15:38;;;;;;;;;;;;;;;;;;5073391;28;20223;-53
2023/04/22 09:18:04;;;;;;;;;;;;;;;;;;5078084;28;20162;-53
2023/04/22 09:20:30;;;;;;;;;;;;;;;;;;5073898;28;20186;-53
2023/04/22 09:22:56;;;;;;;;;;;;;;;;;;5079402;28;20176;-53
2023/04/22 09:25:22;;;;;;;;;;;;;;;;;;5076130;28;20231;-53
2023/04/22 09:27:48;;;;;;;;;;;;;;;;;;5070548;28;20203;-53
2023/04/22 09:30:14;;;;;;;1.10;1.10;;;;;;;;;;5071826;28;20205;-53
2023/04/22 09:32:40;;;;;;;;;;;;;;;;;;5077271;28;20565;-53
2023/04/22 09:35:06;;;;;;;1.00;1.00;;;;;;;;;;5081275;28;20240;-53
2023/04/22 09:37:32;;;;;;;1.00;1.00;;;;;;;;;;5049313;28;20171;-54
2023/04/22 09:39:58;;;;;;;1.00;1.00;;;;;;;;;;5076860;28;20267;-53
2023/04/22 09:42:24;;;;;;;1.00;1.00;;;;;;;;;;5075502;28;20233;-54
2023/04/22 09:44:53;;;;;;;0.90;0.90;;;;;;;;;;5073847;28;20652;-53
2023/04/22 09:47:19;;;;;;;0.90;0.90;;;;;;;;;;5078947;28;20233;-53
2023/04/22 09:49:46;;;;;;;1.40;1.40;;;;;;;;;;5073562;28;20191;-53
2023/04/22 09:52:20;;;;;;;0.90;0.90;;;;;;;;;;5051653;28;20245;-53
2023/04/22 09:54:53;;;;;;;0.90;0.90;;;;;;;;;;5076786;28;20209;-53
2023/04/22 09:57:19;;;;;;;0.80;0.80;;;;;;;;;;5076596;28;20595;-53
2023/04/22 09:59:45;;;;;;;0.80;0.80;;;;;;;;;;5078880;28;20227;-53
2023/04/22 10:02:11;;;;;;;1.40;1.40;;;;;;;;;;5074921;28;20325;-53
2023/04/22 10:04:37;;;;;;;1.60;1.60;;;;;;;;;;5079432;28;20874;-53
2023/04/22 10:07:03;;;;;;;1.30;1.30;;;;;;;;;;5081713;28;20197;-53
2023/04/22 10:09:29;;;;;;;1.42;1.42;;;;;;;;;;5081618;28;20187;-54
2023/04/22 10:11:56;;;;;;;1.50;1.50;;;;;;;;;;5082406;28;20203;-53
2023/04/22 10:14:23;;;;;;;1.60;1.60;;;;;;;;;;5074592;28;20465;-53
2023/04/22 10:16:48;;;;;;;1.60;1.60;;;;;;;;;;5079586;28;20509;-53
2023/04/22 10:19:16;;;;;;;1.60;1.60;;;;;;;;;;5080502;28;20269;-53
2023/04/22 10:21:43;;;;;;;1.70;1.70;;;;;;;;;;5040920;28;20183;-53
2023/04/22 10:24:14;;;;;;;1.60;1.60;;;;;;;;;;5056941;28;20257;-58
2023/04/22 10:26:40;;;;;;;1.60;1.60;;;;;;;;;;5060529;28;20178;-59
2023/04/22 10:29:12;;;;;;;1.43;1.43;;;;;;;;;;5074137;28;20214;-58
2023/04/22 10:31:38;;;;;;;1.60;1.60;;;;;;;;;;5075011;28;20298;-54
2023/04/22 10:34:12;;;;;;;1.60;1.60;;;;;;;;;;5076667;28;20337;-54
2023/04/22 10:36:53;;;;;;;1.60;1.60;;;;;;;;;;5083539;28;20257;-53
2023/04/22 10:39:20;;;;;;;1.50;1.50;;;;;;;;;;5059022;28;20183;-54
2023/04/22 10:41:50;;;;;;;1.50;1.50;;;;;;;;;;5078892;28;20191;-54
2023/04/22 10:44:16;;;;;;;1.38;1.38;;;;;;;;;;5071542;28;21010;-54
2023/04/22 10:46:51;;;;;;;1.30;1.30;;;;;;;;;;5076311;28;20274;-54
2023/04/22 10:49:26;;;;;;;1.40;1.40;;;;;;;;;;5065662;28;20195;-54
2023/04/22 10:51:53;;;;;;;0.70;0.70;;;;;;;;;;5053042;28;20587;-54
2023/04/22 10:54:25;;;;;;;0.77;0.77;;;;;;;;;;5080329;28;20180;-54
2023/04/22 10:57:07;;;;;;;0.70;0.70;;;;;;;;;;5069265;28;20236;-54
2023/04/22 10:59:34;;;;;;;1.30;1.30;;;;;;;;;;5067952;28;20272;-54
2023/04/22 11:02:03;;;;;;;0.73;0.73;;;;;;;;;;5071998;28;20593;-54
2023/04/22 11:04:29;;;;;;;0.80;0.80;;;;;;;;;;5071398;28;20203;-56
2023/04/22 11:07:15;;;;;;;0.70;0.70;;;;;;;;;;5062205;28;20186;-55
2023/04/22 11:09:41;;;;;;;0.70;0.70;;;;;;;;;;5062010;28;20223;-55
2023/04/22 11:12:26;;;;;;;0.75;0.75;;;;;;;;;;5066240;28;20218;-55
2023/04/22 11:14:52;;;;;;;0.70;0.70;;;;;;;;;;5060560;28;20183;-55
2023/04/22 11:17:18;;;;;;;0.77;0.77;;;;;;;;;;5059202;28;20195;-55
2023/04/22 11:19:46;;;;;;;0.70;0.70;;;;;;;;;;5058336;28;20287;-52
2023/04/22 12:37:14;;;;;;;;;;;;;;;;;;5058500;27;20254;-61
2023/04/22 12:39:40;;;;;;;;;;;;;;;;;;5045546;28;20332;-64
2023/04/22 12:42:05;;;;;;;;;;;;;;;;;;5044212;28;20538;-59
2023/04/22 12:44:31;;;;;;;;;;;;;;;;;;5048817;28;20766;-62
2023/04/22 12:56:33;;;;;;;;;;;;;;;;;;5087742;27;20252;-58
2023/04/22 12:59:02;;;;;;;;;;;;;;;;;;5065494;28;20160;-57
2023/04/22 13:01:27;;;;;;;;;;;;;;;;;;5075602;28;20909;-57
2023/04/22 13:03:53;;;;;;;;;;;;;;;;;;5083360;28;20197;-58
2023/04/22 13:06:19;;;;;;;;;;;;;;;;;;5089166;28;20211;-61
2023/04/22 13:08:45;;;;;;;;;;;;;;;;;;5083281;28;20787;-60
2023/04/22 13:11:11;;;;;;;;;;;;;;;;;;5087582;28;20196;-60
2023/04/22 13:13:37;;;;;;;;;;;;;;;;;;5048510;28;20260;-60
2023/04/22 13:16:03;;;;;;;;;;;;;;;;;;5055928;28;20240;-59
2023/04/22 13:18:28;;;;;;;;;;;;;;;;;;5053796;28;20476;-59
2023/04/22 13:20:59;;;;;;;;;;;;;;;;;;5057171;28;20248;-60
2023/04/22 13:23:25;;;;;;;;;;;;;;;;;;5045225;28;20583;-62
2023/04/22 13:25:51;;;;;;;;;;;;;;;;;;5068451;28;20226;-59
2023/04/22 13:28:17;;;;;;;;;;;;;;;;;;5059301;28;20221;-59
2023/04/22 13:30:43;;;;;;;;;;;;;;;;;;5060577;28;20209;-60
2023/04/22 13:33:09;;;;;;;;;;;;;;;;;;5061608;28;20254;-60
2023/04/22 13:35:35;;;;;;;;;;;;;;;;;;5062688;28;20215;-59
2023/04/22 13:38:01;;;;;;;;;;;;;;;;;;5061330;28;20284;-59
2023/04/22 13:40:27;;;;;;;;;;;;;;;;;;5067329;28;20181;-59
2023/04/22 13:42:53;;;;;;;;;;;;;;;;;;5053039;28;20290;-58
2023/04/22 13:45:19;;;;;;;;;;;;;;;;;;5056403;28;20935;-60
2023/04/22 13:47:45;;;;;;;;;;;;;;;;;;5058595;28;20683;-60
2023/04/22 13:50:11;;;;;;;;;;;;;;;;;;5047462;28;21170;-59
2023/04/22 13:52:37;;;;;;;;;;;;;;;;;;5064215;28;20224;-61
2023/04/22 13:55:03;;;;;;;;;;;;;;;;;;5056595;28;20240;-60
2023/04/22 13:57:29;;;;;;;;;;;;;;;;;;5064620;28;20187;-60
2023/04/22 13:59:55;;;;;;;;;;;;;;;;;;5057097;28;20193;-60
2023/04/22 14:02:21;;;;;;;;;;;;;;;;;;5053774;28;20211;-61
2023/04/22 14:04:46;;;;;;;;;;;;;;;;;;5056064;28;20203;-60
2023/04/22 14:07:12;;;;;;;;;;;;;;;;;;5051176;28;20297;-60
2023/04/22 14:09:39;;;;;;;;;;;;;;;;;;5040341;28;20181;-59
2023/04/22 14:12:05;;;;;;;;;;;;;;;;;;5050801;28;20206;-60
2023/04/22 14:14:30;;;;;;;;;;;;;;;;;;5046531;28;20490;-60
2023/04/22 14:16:56;;;;;;;;;;;;;;;;;;5051188;28;20239;-60
2023/04/22 14:19:23;;;;;;;;;;;;;;;;;;5044504;28;20276;-60
2023/04/22 14:21:49;;;;;;;;;;;;;;;;;;5047554;28;20189;-60
2023/04/22 14:24:15;;;;;;;;;;;;;;;;;;5036043;28;20180;-60
2023/04/22 14:26:41;;;;;;;;;;;;;;;;;;5035028;28;20287;-60
2023/04/22 14:29:07;;;;;;;;;;;;;;;;;;5048065;28;20391;-60
2023/04/22 14:31:33;;;;;;;;;;;;;;;;;;5036497;28;20165;-60
2023/04/22 14:33:59;;;;;;;;;;;;;;;;;;5042227;28;20641;-60
2023/04/22 14:36:26;;;;;;;;;;;;;;;;;;5036335;28;20235;-62
2023/04/22 14:38:52;;;;;;;;;;;;;;;;;;5038668;28;20385;-61
2023/04/22 14:41:18;;;;;;;;;;;;;;;;;;5046813;28;20182;-61
2023/04/22 14:43:44;;;;;;;;;;;;;;;;;;5044283;28;20595;-60
2023/04/22 14:46:09;;;;;;;;;;;;;;;;;;5039917;28;20206;-62
2023/04/22 14:48:38;;;;;;;;;;;;;;;;;;5039266;28;20392;-60
2023/04/22 14:51:03;;;;;;;;;;;;;;;;;;5041954;28;20409;-61
2023/04/22 14:53:29;;;;;;;;;;;;;;;;;;5037559;28;20915;-62
2023/04/22 14:55:55;;;;;;;;;;;;;;;;;;5042608;28;20292;-61
2023/04/22 14:58:21;;;;;;;;;;;;;;;;;;5042403;28;20172;-61
2023/04/22 15:00:48;;;;;;;;;;;;;;;;;;5044874;28;20190;-61
2023/04/22 15:03:13;;;;;;;;;;;;;;;;;;5049246;28;20700;-62
2023/04/22 15:05:39;;;;;;;;;;;;;;;;;;5045792;28;20180;-61
2023/04/22 15:08:05;;;;;;;;;;;;;;;;;;5047413;28;20174;-60
2023/04/22 15:10:31;;;;;;;;;;;;;;;;;;5044556;28;20564;-60
2023/04/22 15:12:57;;;;;;;;;;;;;;;;;;5052239;28;20208;-60
2023/04/22 15:15:23;;;;;;;;;;;;;;;;;;5044144;28;20181;-61
2023/04/22 15:17:49;;;;;;;;;;;;;;;;;;5049153;28;20189;-61
2023/04/22 15:20:15;;;;;;;;;;;;;;;;;;5048542;28;20569;-61
2023/04/22 15:22:41;;;;;;;;;;;;;;;;;;5048503;28;20184;-62
2023/04/22 15:25:07;;;;;;;;;;;;;;;;;;5048711;28;20531;-61
2023/04/22 15:27:33;;;;;;;;;;;;;;;;;;5048291;28;20262;-61
2023/04/22 15:29:59;;;;;;;;;;;;;;;;;;5044730;28;20181;-61
2023/04/22 15:32:25;;;;;;;;;;;;;;;;;;5044670;28;20255;-61
2023/04/22 15:34:51;;;;;;;;;;;;;;;;;;5043877;28;20716;-61
2023/04/22 15:37:16;;;;;;;;;;;;;;;;;;5037772;28;20174;-61
2023/04/22 15:39:42;;;;;;;;;;;;;;;;;;5033919;28;20192;-60
2023/04/22 15:42:08;;;;;;;;;;;;;;;;;;5022052;28;20451;-60
2023/04/22 15:44:34;;;;;;;;;;;;;;;;;;5025458;28;20158;-61
2023/04/22 15:47:00;;;;;;;;;;;;;;;;;;5019079;28;20178;-62
2023/04/22 15:49:26;;;;;;;;;;;;;;;;;;5025368;28;20278;-61
2023/04/22 15:51:52;;;;;;;;;;;;;;;;;;5008589;28;20196;-61
2023/04/22 15:54:18;;;;;;;;;;;;;;;;;;5035139;28;21064;-62
2023/04/22 15:56:43;;;;;;;;;;;;;;;;;;5044911;28;20169;-61
2023/04/22 15:59:09;;;;;;;;;;;;;;;;;;5043605;28;20178;-62
2023/04/22 16:01:35;;;;;;;;;;;;;;;;;;5045847;28;20266;-60
2023/04/22 16:04:01;;;;;;;2.00;1.90;;;;;;;;;;5050792;28;20209;-60
2023/04/22 16:06:27;;;;;;;2.20;2.10;;;;;;;;;;5047869;28;20318;-60
2023/04/22 16:08:54;;;;;;;2.10;2.00;;;;;;;;;;5047457;28;20187;-59
2023/04/22 16:11:19;;;;;;;;;;;;;;;;;;5043637;28;20174;-60
2023/04/22 16:13:46;;;;;;;;;;;;;;;;;;5031282;28;20181;-60
2023/04/22 16:16:12;;;;;;;;;;;;;;;;;;5018474;28;21913;-61
2023/04/22 16:18:38;;;;;;;;;;;;;;;;;;5026285;28;20158;-60
2023/04/22 16:21:04;;;;;;;2.00;1.90;;;;;;;;;;5042029;28;20935;-61
2023/04/22 16:23:30;;;;;;;2.00;1.90;;;;;;;;;;5046311;28;20207;-60
2023/04/22 16:25:57;;;;;;;2.20;2.10;;;;;;;;;;5034894;28;20188;-61
2023/04/22 16:28:23;;;;;;;;;;;;;;;;;;5047130;28;20762;-60
2023/04/22 16:30:48;;;;;;;;;;;;;;;;;;5042113;28;20869;-60
2023/04/22 16:33:15;;;;;;;;;;;;;;;;;;5035310;28;20202;-62
2023/04/22 16:35:41;;;;;;;;;;;;;;;;;;5031636;28;20279;-61
2023/04/22 16:38:07;;;;;;;;;;;;;;;;;;5039537;28;20825;-62
2023/04/22 16:40:34;;;;;;;;;;;;;;;;;;5040384;28;20547;-61
2023/04/22 16:43:03;;;;;;;;;;;;;;;;;;5034885;28;20188;-62
2023/04/22 16:45:29;;;;;;;;;;;;;;;;;;5036873;28;20536;-62
2023/04/22 16:47:55;;;;;;;2.30;2.20;;;;;;;;;;5053517;28;20216;-61
2023/04/22 16:50:21;;;;;;;2.40;2.30;;;;;;;;;;5052240;28;20177;-61
2023/04/22 16:52:47;;;;;;;2.20;2.10;;;;;;;;;;5055099;28;20720;-62
2023/04/22 16:55:13;;;;;;;1.90;1.80;;;;;;;;;;5051685;28;20326;-61
2023/04/22 16:57:39;;;;;;;2.00;1.90;;;;;;;;;;5041668;28;20180;-63
2023/04/22 17:00:05;;;;;;;2.00;1.90;;;;;;;;;;5055382;28;20427;-61
2023/04/22 17:02:32;;;;;;;1.90;1.80;;;;;;;;;;5049586;28;20172;-61
2023/04/22 17:05:01;;;;;;;1.73;1.67;;;;;;;;;;5048124;28;20564;-62
2023/04/22 17:07:27;;;;;;;;;;;;;;;;;;5050927;28;20191;-62
2023/04/22 17:09:53;;;;;;;2.10;2.00;;;;;;;;;;5050381;28;20645;-61
2023/04/22 17:12:18;;;;;;;2.30;2.20;;;;;;;;;;5052036;28;20244;-62
2023/04/22 17:14:44;;;;;;;;;;;;;;;;;;5047882;28;20283;-61
2023/04/22 17:17:11;;;;;;;;;;;;;;;;;;5050149;28;20950;-62
2023/04/22 17:19:37;;;;;;;;;;;;;;;;;;5049392;28;20680;-61
2023/04/22 17:22:03;;;;;;;;;;;;;;;;;;5051011;28;20196;-62
2023/04/22 17:24:29;;;;;;;;;;;;;;;;;;5052576;28;20186;-61
2023/04/22 17:26:55;;;;;;;;;;;;;;;;;;5050162;28;20554;-61
2023/04/22 17:29:22;;;;;;;;;;;;;;;;;;5031089;28;20187;-61
2023/04/22 17:31:47;;;;;;;;;;;;;;;;;;5015906;28;21043;-60
2023/04/22 17:34:14;;;;;;;;;;;;;;;;;;5022177;28;20181;-61
2023/04/22 17:36:39;;;;;;;;;;;;;;;;;;5042789;28;20178;-61
2023/04/22 17:39:05;;;;;;;2.10;2.00;;;;;;;;;;5039736;28;20189;-60
2023/04/22 17:41:31;;;;;;;1.20;1.20;;;;;;;;;;5051625;28;20199;-61